الصفحة الرئيسية
METAR-TAF:

METAR-TAF

مطار :

Kolda, السنغال

دائرة عرض: 12-53N, خط طول: 014-58W, ارتفاع: 10 متر

مراقبة الطقس الحالي

تاريخ ووقت الإصدار 43 دقيقة قبل الساعة 17:00UTC
ريح 4 عقدة من الشرق
درجة الحرارة 43°درجة مئوية
الرطوبة 8%
ضغط 1005 hPa
الرؤية: 8000 متر

METAR: GOGK 161700Z 08004KT 8000 NSC 43/02 Q1005

زمن: 17:43 (17:43 UTC)


TAF: مفقودة

أرصاد الطقس والتوقعات من أكثر من 4000 مطار (تقارير الطقس للمطار METAR والتنبؤ بالطقس بالمطارTAF).

المحطات المتاحة هي النقط الصفراء والحمراء على الخريطة.

حرك المؤشر فوق النقطة لمعرفة اسم المحطة.

ثم انقر لمعرفة أرصاد وتوقعات الطقس.

لتغيير الخارطة: اضغط على الأزرار الخضراء مع رمز الصليب الأسود للتكبير. على الزر الأخضر مع شرطة للتصغير، أو على الأسهم الخضراء للخرائط المجاورة.


METAR-TAF: